sensor_id;sensor_type;location;lat;lon;timestamp;pressure;altitude;pressure_sealevel;temperature;humidity
31911;BME280;18457;52.432;16.914;2022-09-01T00:00:10;101161.04;;;16.11;67.01
31911;BME280;18457;52.432;16.914;2022-09-01T00:03:04;101154.36;;;16.14;67.00
31911;BME280;18457;52.432;16.914;2022-09-01T00:05:36;101150.23;;;15.91;67.66
31911;BME280;18457;52.432;16.914;2022-09-01T00:08:08;101152.98;;;15.64;68.90
31911;BME280;18457;52.432;16.914;2022-09-01T00:10:45;101151.26;;;15.55;69.33
31911;BME280;18457;52.432;16.914;2022-09-01T00:13:17;101151.45;;;15.61;69.53
31911;BME280;18457;52.432;16.914;2022-09-01T00:15:49;101148.79;;;15.69;69.29
31911;BME280;18457;52.432;16.914;2022-09-01T00:18:22;101146.85;;;15.67;69.28
31911;BME280;18457;52.432;16.914;2022-09-01T00:20:53;101148.56;;;15.70;69.16
31911;BME280;18457;52.432;16.914;2022-09-01T00:23:28;101148.69;;;15.78;68.86
31911;BME280;18457;52.432;16.914;2022-09-01T00:26:00;101148.41;;;15.86;68.58
31911;BME280;18457;52.432;16.914;2022-09-01T00:28:34;101145.95;;;15.84;68.59
31911;BME280;18457;52.432;16.914;2022-09-01T00:31:08;101143.40;;;15.78;68.67
31911;BME280;18457;52.432;16.914;2022-09-01T00:33:41;101146.81;;;15.85;68.46
31911;BME280;18457;52.432;16.914;2022-09-01T00:36:11;101148.13;;;15.84;68.46
31911;BME280;18457;52.432;16.914;2022-09-01T00:38:44;101146.52;;;15.77;68.43
31911;BME280;18457;52.432;16.914;2022-09-01T00:41:18;101142.98;;;15.80;68.54
31911;BME280;18457;52.432;16.914;2022-09-01T00:43:53;101144.33;;;15.66;68.94
31911;BME280;18457;52.432;16.914;2022-09-01T00:46:28;101146.09;;;15.79;68.67
31911;BME280;18457;52.432;16.914;2022-09-01T00:49:05;101145.46;;;15.60;69.24
31911;BME280;18457;52.432;16.914;2022-09-01T00:51:41;101146.48;;;15.62;69.11
31911;BME280;18457;52.432;16.914;2022-09-01T00:54:17;101143.31;;;15.64;69.05
31911;BME280;18457;52.432;16.914;2022-09-01T00:56:50;101142.73;;;15.42;69.95
31911;BME280;18457;52.432;16.914;2022-09-01T00:59:28;101143.04;;;15.39;70.40
31911;BME280;18457;52.432;16.914;2022-09-01T01:02:01;101142.14;;;15.21;70.90
31911;BME280;18457;52.432;16.914;2022-09-01T01:04:33;101141.17;;;15.11;71.45
31911;BME280;18457;52.432;16.914;2022-09-01T01:07:05;101148.70;;;15.09;71.84
31911;BME280;18457;52.432;16.914;2022-09-01T01:09:42;101146.77;;;15.12;71.64
31911;BME280;18457;52.432;16.914;2022-09-01T01:12:16;101140.30;;;15.10;71.80
31911;BME280;18457;52.432;16.914;2022-09-01T01:14:49;101143.48;;;15.18;71.58
31911;BME280;18457;52.432;16.914;2022-09-01T01:17:22;101147.46;;;15.19;71.70
31911;BME280;18457;52.432;16.914;2022-09-01T01:19:56;101148.86;;;15.21;71.54
31911;BME280;18457;52.432;16.914;2022-09-01T01:22:51;101149.04;;;14.92;72.60
31911;BME280;18457;52.432;16.914;2022-09-01T01:25:40;101143.23;;;15.04;72.14
31911;BME280;18457;52.432;16.914;2022-09-01T01:28:16;101147.06;;;15.15;71.92
31911;BME280;18457;52.432;16.914;2022-09-01T01:30:54;101145.30;;;15.24;71.61
31911;BME280;18457;52.432;16.914;2022-09-01T01:33:33;101146.40;;;15.24;71.58
31911;BME280;18457;52.432;16.914;2022-09-01T01:36:15;101144.20;;;14.89;72.69
31911;BME280;18457;52.432;16.914;2022-09-01T01:38:49;101146.98;;;14.94;72.72
31911;BME280;18457;52.432;16.914;2022-09-01T01:41:22;101145.66;;;15.07;72.45
31911;BME280;18457;52.432;16.914;2022-09-01T01:43:56;101144.00;;;14.84;73.16
31911;BME280;18457;52.432;16.914;2022-09-01T01:46:31;101148.10;;;14.74;73.81
31911;BME280;18457;52.432;16.914;2022-09-01T01:49:47;101149.92;;;14.74;73.83
31911;BME280;18457;52.432;16.914;2022-09-01T01:52:39;101147.25;;;14.60;74.42
31911;BME280;18457;52.432;16.914;2022-09-01T01:55:17;101136.34;;;14.72;74.08
31911;BME280;18457;52.432;16.914;2022-09-01T01:57:49;101137.77;;;14.79;73.52
31911;BME280;18457;52.432;16.914;2022-09-01T02:00:26;101138.80;;;14.69;74.11
31911;BME280;18457;52.432;16.914;2022-09-01T02:03:00;101143.47;;;14.52;74.87
31911;BME280;18457;52.432;16.914;2022-09-01T02:05:34;101142.10;;;14.55;74.67
31911;BME280;18457;52.432;16.914;2022-09-01T02:08:12;101145.64;;;14.40;75.42
31911;BME280;18457;52.432;16.914;2022-09-01T02:10:47;101145.05;;;14.54;75.21
31911;BME280;18457;52.432;16.914;2022-09-01T02:13:28;101147.59;;;14.73;74.31
31911;BME280;18457;52.432;16.914;2022-09-01T02:16:04;101150.36;;;14.65;74.44
31911;BME280;18457;52.432;16.914;2022-09-01T02:18:45;101150.04;;;14.64;74.49
31911;BME280;18457;52.432;16.914;2022-09-01T02:21:22;101151.48;;;14.64;74.75
31911;BME280;18457;52.432;16.914;2022-09-01T02:23:58;101150.81;;;14.56;75.29
31911;BME280;18457;52.432;16.914;2022-09-01T02:26:35;101150.75;;;14.52;75.56
31911;BME280;18457;52.432;16.914;2022-09-01T02:29:12;101149.48;;;14.52;75.71
31911;BME280;18457;52.432;16.914;2022-09-01T02:31:51;101147.82;;;14.53;75.53
31911;BME280;18457;52.432;16.914;2022-09-01T02:34:25;101144.79;;;14.50;76.04
31911;BME280;18457;52.432;16.914;2022-09-01T02:36:58;101148.23;;;14.39;76.65
31911;BME280;18457;52.432;16.914;2022-09-01T02:39:31;101145.58;;;14.36;77.14
31911;BME280;18457;52.432;16.914;2022-09-01T02:42:05;101141.91;;;14.29;77.18
31911;BME280;18457;52.432;16.914;2022-09-01T02:44:38;101139.59;;;14.36;77.37
31911;BME280;18457;52.432;16.914;2022-09-01T02:47:11;101144.09;;;14.30;77.36
31911;BME280;18457;52.432;16.914;2022-09-01T02:49:43;101144.52;;;14.41;76.67
31911;BME280;18457;52.432;16.914;2022-09-01T02:52:16;101143.42;;;14.47;76.39
31911;BME280;18457;52.432;16.914;2022-09-01T02:54:50;101146.50;;;14.41;76.99
31911;BME280;18457;52.432;16.914;2022-09-01T02:57:22;101141.27;;;14.59;76.02
31911;BME280;18457;52.432;16.914;2022-09-01T02:59:54;101140.81;;;14.62;75.87
31911;BME280;18457;52.432;16.914;2022-09-01T03:02:28;101146.77;;;14.45;76.35
31911;BME280;18457;52.432;16.914;2022-09-01T03:05:01;101149.61;;;14.27;77.03
31911;BME280;18457;52.432;16.914;2022-09-01T03:07:32;101145.10;;;14.26;77.38
31911;BME280;18457;52.432;16.914;2022-09-01T03:10:05;101143.09;;;14.34;76.91
31911;BME280;18457;52.432;16.914;2022-09-01T03:12:39;101142.95;;;14.51;76.19
31911;BME280;18457;52.432;16.914;2022-09-01T03:15:11;101143.17;;;14.56;75.77
31911;BME280;18457;52.432;16.914;2022-09-01T03:17:44;101138.13;;;14.55;75.97
31911;BME280;18457;52.432;16.914;2022-09-01T03:20:17;101133.80;;;14.66;75.67
31911;BME280;18457;52.432;16.914;2022-09-01T03:22:51;101135.80;;;14.66;75.57
31911;BME280;18457;52.432;16.914;2022-09-01T03:25:24;101137.36;;;14.55;75.97
31911;BME280;18457;52.432;16.914;2022-09-01T03:27:58;101132.78;;;14.57;76.13
31911;BME280;18457;52.432;16.914;2022-09-01T03:30:35;101134.77;;;14.38;76.93
31911;BME280;18457;52.432;16.914;2022-09-01T03:33:10;101139.40;;;14.42;76.89
31911;BME280;18457;52.432;16.914;2022-09-01T03:35:42;101136.95;;;14.31;77.34
31911;BME280;18457;52.432;16.914;2022-09-01T03:38:16;101140.70;;;14.34;77.46
31911;BME280;18457;52.432;16.914;2022-09-01T03:40:54;101144.45;;;14.23;77.77
31911;BME280;18457;52.432;16.914;2022-09-01T03:43:30;101147.05;;;14.28;77.60
31911;BME280;18457;52.432;16.914;2022-09-01T03:46:06;101150.94;;;14.45;76.95
31911;BME280;18457;52.432;16.914;2022-09-01T03:48:39;101148.84;;;14.48;76.71
31911;BME280;18457;52.432;16.914;2022-09-01T03:51:12;101151.66;;;14.45;76.34
31911;BME280;18457;52.432;16.914;2022-09-01T03:53:44;101153.89;;;14.16;77.86
31911;BME280;18457;52.432;16.914;2022-09-01T03:56:17;101155.92;;;14.01;78.86
31911;BME280;18457;52.432;16.914;2022-09-01T03:58:48;101158.27;;;14.23;78.15
31911;BME280;18457;52.432;16.914;2022-09-01T04:01:22;101162.60;;;13.96;79.29
31911;BME280;18457;52.432;16.914;2022-09-01T04:03:55;101158.30;;;14.01;79.51
31911;BME280;18457;52.432;16.914;2022-09-01T04:06:30;101160.69;;;14.28;78.23
31911;BME280;18457;52.432;16.914;2022-09-01T04:09:02;101163.27;;;14.33;78.15
31911;BME280;18457;52.432;16.914;2022-09-01T04:11:39;101163.19;;;14.49;77.26
31911;BME280;18457;52.432;16.914;2022-09-01T04:14:20;101161.40;;;14.42;77.56
31911;BME280;18457;52.432;16.914;2022-09-01T04:16:54;101156.77;;;14.45;77.49
31911;BME280;18457;52.432;16.914;2022-09-01T04:19:43;101155.52;;;14.37;77.81
31911;BME280;18457;52.432;16.914;2022-09-01T04:22:17;101157.56;;;14.15;78.95
31911;BME280;18457;52.432;16.914;2022-09-01T04:24:51;101164.96;;;14.31;78.38
31911;BME280;18457;52.432;16.914;2022-09-01T04:27:25;101162.53;;;14.34;78.25
31911;BME280;18457;52.432;16.914;2022-09-01T04:29:57;101159.39;;;14.22;78.87
31911;BME280;18457;52.432;16.914;2022-09-01T04:32:33;101159.04;;;14.14;79.11
31911;BME280;18457;52.432;16.914;2022-09-01T04:35:08;101163.11;;;14.11;79.31
31911;BME280;18457;52.432;16.914;2022-09-01T04:37:41;101159.73;;;14.29;78.50
31911;BME280;18457;52.432;16.914;2022-09-01T04:40:12;101156.98;;;14.23;78.76
31911;BME280;18457;52.432;16.914;2022-09-01T04:42:46;101166.23;;;14.31;78.45
31911;BME280;18457;52.432;16.914;2022-09-01T04:45:21;101161.83;;;14.26;78.58
31911;BME280;18457;52.432;16.914;2022-09-01T04:47:59;101165.92;;;14.22;78.70
31911;BME280;18457;52.432;16.914;2022-09-01T04:50:31;101164.41;;;14.24;78.85
31911;BME280;18457;52.432;16.914;2022-09-01T04:53:23;101166.55;;;14.18;78.88
31911;BME280;18457;52.432;16.914;2022-09-01T04:56:03;101166.59;;;14.24;78.86
31911;BME280;18457;52.432;16.914;2022-09-01T04:58:39;101164.83;;;14.29;78.81
31911;BME280;18457;52.432;16.914;2022-09-01T05:01:16;101167.73;;;14.08;79.46
31911;BME280;18457;52.432;16.914;2022-09-01T05:03:50;101164.52;;;14.06;79.84
31911;BME280;18457;52.432;16.914;2022-09-01T05:06:43;101165.21;;;14.00;79.94
31911;BME280;18457;52.432;16.914;2022-09-01T05:09:33;101162.35;;;13.78;81.06
31911;BME280;18457;52.432;16.914;2022-09-01T05:12:24;101164.13;;;14.00;80.53
31911;BME280;18457;52.432;16.914;2022-09-01T05:14:57;101166.82;;;14.15;79.87
31911;BME280;18457;52.432;16.914;2022-09-01T05:17:32;101166.88;;;14.28;79.17
31911;BME280;18457;52.432;16.914;2022-09-01T05:20:07;101165.00;;;14.23;79.15
31911;BME280;18457;52.432;16.914;2022-09-01T05:22:39;101164.30;;;14.21;79.63
31911;BME280;18457;52.432;16.914;2022-09-01T05:25:12;101164.84;;;14.21;79.73
31911;BME280;18457;52.432;16.914;2022-09-01T05:27:46;101165.27;;;14.26;79.51
31911;BME280;18457;52.432;16.914;2022-09-01T05:30:22;101165.63;;;14.34;79.60
31911;BME280;18457;52.432;16.914;2022-09-01T05:32:58;101171.04;;;14.42;79.27
31911;BME280;18457;52.432;16.914;2022-09-01T05:35:31;101170.73;;;14.53;78.73
31911;BME280;18457;52.432;16.914;2022-09-01T05:38:04;101168.49;;;14.60;78.34
31911;BME280;18457;52.432;16.914;2022-09-01T05:40:43;101168.62;;;14.69;77.93
31911;BME280;18457;52.432;16.914;2022-09-01T05:43:17;101163.45;;;14.72;77.75
31911;BME280;18457;52.432;16.914;2022-09-01T05:45:49;101161.60;;;14.73;77.56
31911;BME280;18457;52.432;16.914;2022-09-01T05:48:36;101163.60;;;14.66;77.52
31911;BME280;18457;52.432;16.914;2022-09-01T05:51:12;101163.02;;;14.68;77.36
31911;BME280;18457;52.432;16.914;2022-09-01T05:54:07;101156.34;;;14.78;76.93
31911;BME280;18457;52.432;16.914;2022-09-01T05:56:40;101160.25;;;14.94;76.28
31911;BME280;18457;52.432;16.914;2022-09-01T05:59:18;101165.54;;;15.00;75.83
31911;BME280;18457;52.432;16.914;2022-09-01T06:01:54;101162.30;;;15.11;75.02
31911;BME280;18457;52.432;16.914;2022-09-01T06:04:26;101169.55;;;15.12;75.30
31911;BME280;18457;52.432;16.914;2022-09-01T06:07:04;101163.98;;;15.15;75.29
31911;BME280;18457;52.432;16.914;2022-09-01T06:09:43;101167.35;;;15.18;74.59
31911;BME280;18457;52.432;16.914;2022-09-01T06:12:16;101172.58;;;15.14;74.61
31911;BME280;18457;52.432;16.914;2022-09-01T06:14:55;101176.20;;;15.15;74.53
31911;BME280;18457;52.432;16.914;2022-09-01T06:17:28;101174.72;;;15.15;74.75
31911;BME280;18457;52.432;16.914;2022-09-01T06:20:07;101169.99;;;15.33;74.00
31911;BME280;18457;52.432;16.914;2022-09-01T06:22:42;101174.98;;;15.30;73.71
31911;BME280;18457;52.432;16.914;2022-09-01T06:25:16;101178.82;;;15.18;73.75
31911;BME280;18457;52.432;16.914;2022-09-01T06:27:49;101184.17;;;15.33;73.52
31911;BME280;18457;52.432;16.914;2022-09-01T06:30:22;101187.16;;;15.37;73.16
31911;BME280;18457;52.432;16.914;2022-09-01T06:33:01;101190.52;;;15.52;72.64
31911;BME280;18457;52.432;16.914;2022-09-01T06:35:40;101190.09;;;15.55;73.06
31911;BME280;18457;52.432;16.914;2022-09-01T06:38:14;101184.90;;;15.51;72.86
31911;BME280;18457;52.432;16.914;2022-09-01T06:40:57;101192.15;;;15.64;72.83
31911;BME280;18457;52.432;16.914;2022-09-01T06:43:31;101194.09;;;15.72;72.27
31911;BME280;18457;52.432;16.914;2022-09-01T06:46:05;101197.53;;;15.83;71.87
31911;BME280;18457;52.432;16.914;2022-09-01T06:48:39;101202.27;;;15.84;71.70
31911;BME280;18457;52.432;16.914;2022-09-01T06:51:18;101204.23;;;15.73;71.73
31911;BME280;18457;52.432;16.914;2022-09-01T06:53:56;101202.36;;;15.92;71.47
31911;BME280;18457;52.432;16.914;2022-09-01T06:56:34;101200.79;;;15.99;71.39
31911;BME280;18457;52.432;16.914;2022-09-01T06:59:15;101202.03;;;16.07;71.18
31911;BME280;18457;52.432;16.914;2022-09-01T07:01:51;101199.54;;;16.05;71.16
31911;BME280;18457;52.432;16.914;2022-09-01T07:04:41;101197.45;;;16.02;70.81
31911;BME280;18457;52.432;16.914;2022-09-01T07:07:14;101198.98;;;16.10;70.50
31911;BME280;18457;52.432;16.914;2022-09-01T07:10:27;101196.42;;;16.16;70.11
31911;BME280;18457;52.432;16.914;2022-09-01T07:13:07;101200.41;;;16.26;69.83
31911;BME280;18457;52.432;16.914;2022-09-01T07:15:41;101200.77;;;16.16;69.61
31911;BME280;18457;52.432;16.914;2022-09-01T07:18:36;101201.46;;;16.22;69.57
31911;BME280;18457;52.432;16.914;2022-09-01T07:21:12;101201.25;;;16.29;69.33
31911;BME280;18457;52.432;16.914;2022-09-01T07:24:04;101204.51;;;16.35;68.76
31911;BME280;18457;52.432;16.914;2022-09-01T07:26:42;101198.79;;;16.42;68.23
31911;BME280;18457;52.432;16.914;2022-09-01T07:29:19;101201.27;;;16.44;67.85
31911;BME280;18457;52.432;16.914;2022-09-01T07:31:53;101198.55;;;16.49;67.81
31911;BME280;18457;52.432;16.914;2022-09-01T07:34:46;101197.42;;;16.55;67.40
31911;BME280;18457;52.432;16.914;2022-09-01T07:37:19;101196.64;;;16.67;67.52
31911;BME280;18457;52.432;16.914;2022-09-01T07:40:15;101196.13;;;16.76;66.92
31911;BME280;18457;52.432;16.914;2022-09-01T07:43:34;101201.64;;;16.90;67.06
31911;BME280;18457;52.432;16.914;2022-09-01T07:46:27;101195.23;;;16.95;65.80
31911;BME280;18457;52.432;16.914;2022-09-01T07:49:21;101196.98;;;17.01;65.33
31911;BME280;18457;52.432;16.914;2022-09-01T07:52:16;101195.96;;;17.04;65.04
31911;BME280;18457;52.432;16.914;2022-09-01T07:54:52;101198.41;;;17.17;65.44
31911;BME280;18457;52.432;16.914;2022-09-01T07:57:34;101197.23;;;17.28;65.77
31911;BME280;18457;52.432;16.914;2022-09-01T08:00:16;101199.91;;;17.35;65.54
31911;BME280;18457;52.432;16.914;2022-09-01T08:02:58;101199.84;;;17.41;64.90
31911;BME280;18457;52.432;16.914;2022-09-01T08:05:36;101200.55;;;17.41;63.63
31911;BME280;18457;52.432;16.914;2022-09-01T08:08:31;101208.00;;;17.42;63.39
31911;BME280;18457;52.432;16.914;2022-09-01T08:11:22;101205.79;;;17.38;62.28
31911;BME280;18457;52.432;16.914;2022-09-01T08:14:28;101210.48;;;17.45;62.92
31911;BME280;18457;52.432;16.914;2022-09-01T08:17:05;101205.84;;;17.61;62.78
31911;BME280;18457;52.432;16.914;2022-09-01T08:20:11;101211.80;;;17.76;62.10
31911;BME280;18457;52.432;16.914;2022-09-01T08:23:07;101209.71;;;17.86;61.94
31911;BME280;18457;52.432;16.914;2022-09-01T08:25:43;101210.42;;;17.96;61.57
31911;BME280;18457;52.432;16.914;2022-09-01T08:28:18;101211.30;;;18.01;60.57
31911;BME280;18457;52.432;16.914;2022-09-01T08:30:57;101209.33;;;18.04;59.98
31911;BME280;18457;52.432;16.914;2022-09-01T08:33:33;101207.79;;;18.14;60.61
31911;BME280;18457;52.432;16.914;2022-09-01T08:36:09;101209.95;;;18.16;60.43
31911;BME280;18457;52.432;16.914;2022-09-01T08:38:43;101209.92;;;18.16;59.88
31911;BME280;18457;52.432;16.914;2022-09-01T08:41:42;101210.12;;;18.11;59.56
31911;BME280;18457;52.432;16.914;2022-09-01T08:44:28;101207.98;;;18.19;59.96
31911;BME280;18457;52.432;16.914;2022-09-01T08:47:08;101207.72;;;18.83;61.62
31911;BME280;18457;52.432;16.914;2022-09-01T08:49:47;101208.21;;;18.76;58.98
31911;BME280;18457;52.432;16.914;2022-09-01T08:52:59;101207.69;;;18.34;55.94
31911;BME280;18457;52.432;16.914;2022-09-01T08:55:44;101209.46;;;18.31;55.87
31911;BME280;18457;52.432;16.914;2022-09-01T08:58:25;101210.31;;;18.33;54.89
31911;BME280;18457;52.432;16.914;2022-09-01T09:01:28;101206.27;;;18.28;50.89
31911;BME280;18457;52.432;16.914;2022-09-01T09:04:14;101206.21;;;18.25;49.34
31911;BME280;18457;52.432;16.914;2022-09-01T09:06:55;101202.84;;;18.32;50.30
31911;BME280;18457;52.432;16.914;2022-09-01T09:09:36;101201.38;;;18.32;51.05
31911;BME280;18457;52.432;16.914;2022-09-01T09:12:31;101199.43;;;18.35;49.68
31911;BME280;18457;52.432;16.914;2022-09-01T09:15:30;101194.84;;;18.35;49.90
31911;BME280;18457;52.432;16.914;2022-09-01T09:18:15;101195.82;;;18.42;50.47
31911;BME280;18457;52.432;16.914;2022-09-01T09:21:15;101197.45;;;18.55;49.37
31911;BME280;18457;52.432;16.914;2022-09-01T09:23:55;101197.10;;;18.63;49.20
31911;BME280;18457;52.432;16.914;2022-09-01T09:26:32;101197.84;;;18.71;50.65
31911;BME280;18457;52.432;16.914;2022-09-01T09:29:13;101190.55;;;18.90;49.73
31911;BME280;18457;52.432;16.914;2022-09-01T09:31:46;101194.00;;;18.99;48.50
31911;BME280;18457;52.432;16.914;2022-09-01T09:34:33;101197.58;;;19.08;47.79
31911;BME280;18457;52.432;16.914;2022-09-01T09:37:23;101193.77;;;19.12;48.13
31911;BME280;18457;52.432;16.914;2022-09-01T09:40:11;101195.42;;;19.35;47.91
31911;BME280;18457;52.432;16.914;2022-09-01T09:43:04;101188.02;;;19.29;47.92
31911;BME280;18457;52.432;16.914;2022-09-01T09:45:39;101188.38;;;19.33;48.47
31911;BME280;18457;52.432;16.914;2022-09-01T09:48:29;101179.56;;;19.30;47.08
31911;BME280;18457;52.432;16.914;2022-09-01T09:51:19;101182.98;;;19.42;47.52
31911;BME280;18457;52.432;16.914;2022-09-01T09:53:52;101175.92;;;19.67;46.99
31911;BME280;18457;52.432;16.914;2022-09-01T09:56:26;101175.08;;;19.69;47.70
31911;BME280;18457;52.432;16.914;2022-09-01T09:58:59;101176.90;;;19.91;46.10
31911;BME280;18457;52.432;16.914;2022-09-01T10:01:33;101177.73;;;20.04;45.83
31911;BME280;18457;52.432;16.914;2022-09-01T10:04:06;101174.05;;;20.04;45.46
31911;BME280;18457;52.432;16.914;2022-09-01T10:06:41;101172.00;;;20.12;45.43
31911;BME280;18457;52.432;16.914;2022-09-01T10:09:34;101169.81;;;20.26;45.78
31911;BME280;18457;52.432;16.914;2022-09-01T10:12:28;101167.11;;;20.56;44.39
31911;BME280;18457;52.432;16.914;2022-09-01T10:15:05;101166.25;;;20.96;44.55
31911;BME280;18457;52.432;16.914;2022-09-01T10:17:47;101166.02;;;20.97;44.45
31911;BME280;18457;52.432;16.914;2022-09-01T10:20:50;101169.39;;;20.62;43.67
31911;BME280;18457;52.432;16.914;2022-09-01T10:23:25;101168.25;;;20.38;43.40
31911;BME280;18457;52.432;16.914;2022-09-01T10:26:08;101168.58;;;20.39;43.39
31911;BME280;18457;52.432;16.914;2022-09-01T10:28:48;101171.89;;;20.39;43.06
31911;BME280;18457;52.432;16.914;2022-09-01T10:31:24;101171.11;;;20.26;43.43
31911;BME280;18457;52.432;16.914;2022-09-01T10:34:04;101170.64;;;20.42;43.43
31911;BME280;18457;52.432;16.914;2022-09-01T10:36:38;101167.64;;;20.43;43.92
31911;BME280;18457;52.432;16.914;2022-09-01T10:39:19;101171.60;;;20.51;44.05
31911;BME280;18457;52.432;16.914;2022-09-01T10:42:02;101171.04;;;20.42;43.16
31911;BME280;18457;52.432;16.914;2022-09-01T10:44:58;101169.46;;;20.54;43.39
31911;BME280;18457;52.432;16.914;2022-09-01T10:47:32;101164.73;;;21.10;42.84
31911;BME280;18457;52.432;16.914;2022-09-01T10:50:25;101158.98;;;21.38;42.60
31911;BME280;18457;52.432;16.914;2022-09-01T10:53:08;101169.79;;;21.25;42.25
31911;BME280;18457;52.432;16.914;2022-09-01T10:56:00;101170.07;;;20.97;42.50
31911;BME280;18457;52.432;16.914;2022-09-01T10:59:10;101169.27;;;20.91;42.98
31911;BME280;18457;52.432;16.914;2022-09-01T11:02:14;101171.48;;;20.81;44.43
31911;BME280;18457;52.432;16.914;2022-09-01T11:05:18;101169.61;;;20.81;44.83
31911;BME280;18457;52.432;16.914;2022-09-01T11:07:53;101170.88;;;20.89;45.28
31911;BME280;18457;52.432;16.914;2022-09-01T11:11:08;101168.54;;;20.88;45.17
31911;BME280;18457;52.432;16.914;2022-09-01T11:13:45;101172.45;;;20.90;44.65
31911;BME280;18457;52.432;16.914;2022-09-01T11:16:30;101165.13;;;21.07;44.34
31911;BME280;18457;52.432;16.914;2022-09-01T11:22:37;101166.61;;;21.13;43.60
31911;BME280;18457;52.432;16.914;2022-09-01T11:25:34;101167.84;;;21.21;41.74
31911;BME280;18457;52.432;16.914;2022-09-01T11:28:36;101170.48;;;21.22;41.74
31911;BME280;18457;52.432;16.914;2022-09-01T11:31:25;101170.71;;;21.09;41.66
31911;BME280;18457;52.432;16.914;2022-09-01T11:34:14;101166.66;;;21.15;42.28
31911;BME280;18457;52.432;16.914;2022-09-01T11:37:00;101168.20;;;21.05;42.55
31911;BME280;18457;52.432;16.914;2022-09-01T11:39:40;101166.05;;;20.96;42.61
31911;BME280;18457;52.432;16.914;2022-09-01T11:42:18;101166.92;;;21.07;42.74
31911;BME280;18457;52.432;16.914;2022-09-01T11:44:55;101164.70;;;20.97;42.86
31911;BME280;18457;52.432;16.914;2022-09-01T11:47:34;101173.98;;;21.03;43.60
31911;BME280;18457;52.432;16.914;2022-09-01T11:50:17;101171.02;;;21.20;44.19
31911;BME280;18457;52.432;16.914;2022-09-01T11:53:04;101170.05;;;21.21;43.87
31911;BME280;18457;52.432;16.914;2022-09-01T11:55:39;101170.40;;;21.18;44.42
31911;BME280;18457;52.432;16.914;2022-09-01T12:01:32;101170.67;;;21.29;43.55
31911;BME280;18457;52.432;16.914;2022-09-01T12:04:44;101166.47;;;21.15;42.23
31911;BME280;18457;52.432;16.914;2022-09-01T12:07:39;101165.22;;;21.24;42.08
31911;BME280;18457;52.432;16.914;2022-09-01T12:10:46;101169.18;;;21.39;41.91
31911;BME280;18457;52.432;16.914;2022-09-01T12:13:32;101172.77;;;21.44;41.32
31911;BME280;18457;52.432;16.914;2022-09-01T12:16:21;101167.53;;;21.29;41.15
31911;BME280;18457;52.432;16.914;2022-09-01T12:18:56;101164.67;;;21.60;41.24
31911;BME280;18457;52.432;16.914;2022-09-01T12:21:31;101163.48;;;21.84;40.92
31911;BME280;18457;52.432;16.914;2022-09-01T12:24:16;101164.73;;;21.91;40.41
31911;BME280;18457;52.432;16.914;2022-09-01T12:26:51;101159.33;;;22.05;40.38
31911;BME280;18457;52.432;16.914;2022-09-01T12:29:35;101158.91;;;21.99;40.35
31911;BME280;18457;52.432;16.914;2022-09-01T12:32:08;101161.05;;;22.21;40.44
31911;BME280;18457;52.432;16.914;2022-09-01T12:34:45;101159.19;;;22.07;39.90
31911;BME280;18457;52.432;16.914;2022-09-01T12:37:22;101157.53;;;21.98;40.36
31911;BME280;18457;52.432;16.914;2022-09-01T12:39:57;101156.42;;;22.10;41.07
31911;BME280;18457;52.432;16.914;2022-09-01T12:42:32;101158.15;;;22.03;40.99
31911;BME280;18457;52.432;16.914;2022-09-01T12:45:13;101154.39;;;22.04;40.91
31911;BME280;18457;52.432;16.914;2022-09-01T12:48:05;101149.71;;;21.96;41.06
31911;BME280;18457;52.432;16.914;2022-09-01T12:50:45;101144.75;;;21.77;41.42
31911;BME280;18457;52.432;16.914;2022-09-01T12:53:24;101146.61;;;21.51;41.43
31911;BME280;18457;52.432;16.914;2022-09-01T12:56:19;101139.63;;;21.32;41.86
31911;BME280;18457;52.432;16.914;2022-09-01T12:59:04;101142.08;;;21.40;42.58
31911;BME280;18457;52.432;16.914;2022-09-01T13:01:46;101134.36;;;21.50;42.58
31911;BME280;18457;52.432;16.914;2022-09-01T13:04:28;101137.81;;;21.38;42.90
31911;BME280;18457;52.432;16.914;2022-09-01T13:07:05;101141.33;;;21.47;42.68
31911;BME280;18457;52.432;16.914;2022-09-01T13:09:38;101134.58;;;21.55;42.33
31911;BME280;18457;52.432;16.914;2022-09-01T13:12:12;101141.05;;;21.74;41.89
31911;BME280;18457;52.432;16.914;2022-09-01T13:14:47;101138.14;;;21.74;42.03
31911;BME280;18457;52.432;16.914;2022-09-01T13:17:21;101133.56;;;21.54;42.56
31911;BME280;18457;52.432;16.914;2022-09-01T13:19:53;101129.88;;;21.45;42.85
31911;BME280;18457;52.432;16.914;2022-09-01T13:22:26;101130.04;;;21.74;43.75
31911;BME280;18457;52.432;16.914;2022-09-01T13:24:59;101133.65;;;21.72;43.75
31911;BME280;18457;52.432;16.914;2022-09-01T13:27:32;101132.39;;;21.64;43.49
31911;BME280;18457;52.432;16.914;2022-09-01T13:30:02;101128.27;;;21.60;43.42
31911;BME280;18457;52.432;16.914;2022-09-01T13:32:34;101136.05;;;21.33;44.18
31911;BME280;18457;52.432;16.914;2022-09-01T13:35:09;101132.23;;;21.23;43.90
31911;BME280;18457;52.432;16.914;2022-09-01T13:37:42;101134.02;;;21.43;44.19
31911;BME280;18457;52.432;16.914;2022-09-01T13:40:16;101132.39;;;21.55;44.43
31911;BME280;18457;52.432;16.914;2022-09-01T13:42:49;101135.67;;;21.43;44.58
31911;BME280;18457;52.432;16.914;2022-09-01T13:45:24;101133.89;;;21.36;44.46
31911;BME280;18457;52.432;16.914;2022-09-01T13:47:55;101132.77;;;21.36;44.53
31911;BME280;18457;52.432;16.914;2022-09-01T13:50:50;101130.52;;;21.55;45.41